createdAt,value
2024-01-06T00:02:09.358Z,0.40
2024-01-06T00:04:35.968Z,0.50
2024-01-06T00:07:02.563Z,0.45
2024-01-06T00:09:29.227Z,0.50
2024-01-06T00:11:55.892Z,0.47
2024-01-06T00:14:24.484Z,0.70
2024-01-06T00:16:51.071Z,0.57
2024-01-06T00:19:18.962Z,0.47
2024-01-06T00:21:45.784Z,0.60
2024-01-06T00:24:12.454Z,0.63
2024-01-06T00:26:39.085Z,0.60
2024-01-06T00:29:05.678Z,0.50
2024-01-06T00:31:32.455Z,0.60
2024-01-06T00:33:59.283Z,0.63
2024-01-06T00:36:26.117Z,0.50
2024-01-06T00:38:52.762Z,0.50
2024-01-06T00:41:19.406Z,0.50
2024-01-06T00:43:46.032Z,0.52
2024-01-06T00:46:12.632Z,0.47
2024-01-06T00:48:39.360Z,0.50
2024-01-06T00:51:06.192Z,0.47
2024-01-06T00:53:32.813Z,0.50
2024-01-06T00:55:59.470Z,0.60
2024-01-06T00:58:26.064Z,0.47
2024-01-06T01:00:52.754Z,0.55
2024-01-06T01:03:19.494Z,0.57
2024-01-06T01:05:47.771Z,0.43
2024-01-06T01:08:14.385Z,0.57
2024-01-06T01:10:41.008Z,0.50
2024-01-06T01:13:08.573Z,0.40
2024-01-06T01:15:36.141Z,0.50
2024-01-06T01:18:02.872Z,0.50
2024-01-06T01:20:29.542Z,0.70
2024-01-06T01:22:56.208Z,0.50
2024-01-06T01:25:22.786Z,0.38
2024-01-06T01:27:49.471Z,0.60
2024-01-06T01:30:16.284Z,0.40
2024-01-06T01:32:43.173Z,0.60
2024-01-06T01:35:09.828Z,0.50
2024-01-06T01:37:37.091Z,0.52
2024-01-06T01:40:04.043Z,0.40
2024-01-06T01:42:30.698Z,0.60
2024-01-06T01:44:57.385Z,0.50
2024-01-06T01:47:24.063Z,0.65
2024-01-06T01:49:51.214Z,0.60
2024-01-06T01:52:17.939Z,0.50
2024-01-06T01:54:46.540Z,0.63
2024-01-06T01:57:14.312Z,0.40
2024-01-06T01:59:40.969Z,0.47
2024-01-06T02:02:07.638Z,0.50
2024-01-06T02:04:34.277Z,0.43
2024-01-06T02:07:00.912Z,0.50
2024-01-06T02:09:30.591Z,0.50
2024-01-06T02:12:00.519Z,0.60
2024-01-06T02:14:27.931Z,0.63
2024-01-06T02:16:54.584Z,0.43
2024-01-06T02:19:21.380Z,0.60
2024-01-06T02:21:54.869Z,0.50
2024-01-06T02:26:48.469Z,0.50
2024-01-06T02:29:15.050Z,0.50
2024-01-06T02:31:41.791Z,0.60
2024-01-06T02:34:08.686Z,0.50
2024-01-06T02:36:35.526Z,0.50
2024-01-06T02:39:02.482Z,0.50
2024-01-06T02:41:29.067Z,0.47
2024-01-06T02:43:59.218Z,0.60
2024-01-06T02:46:25.807Z,0.50
2024-01-06T02:48:52.505Z,0.40
2024-01-06T02:51:19.251Z,0.45
2024-01-06T02:53:45.851Z,0.50
2024-01-06T02:56:13.344Z,0.40
2024-01-06T02:58:40.521Z,0.70
2024-01-06T03:01:07.374Z,0.45
2024-01-06T03:03:34.429Z,0.45
2024-01-06T03:06:01.283Z,0.50
2024-01-06T03:08:28.134Z,0.47
2024-01-06T03:10:54.800Z,0.47
2024-01-06T03:13:23.046Z,0.90
2024-01-06T03:15:52.410Z,0.70
2024-01-06T03:18:19.136Z,0.50
2024-01-06T03:20:45.850Z,0.52
2024-01-06T03:23:12.450Z,0.60
2024-01-06T03:25:39.033Z,0.50
2024-01-06T03:28:05.663Z,0.47
2024-01-06T03:30:33.385Z,0.50
2024-01-06T03:33:00.180Z,0.50
2024-01-06T03:35:26.840Z,0.60
2024-01-06T03:37:53.450Z,0.50
2024-01-06T03:40:20.067Z,0.52
2024-01-06T03:42:46.761Z,0.77
2024-01-06T03:45:13.510Z,0.60
2024-01-06T03:47:40.194Z,0.40
2024-01-06T03:50:07.257Z,0.43
2024-01-06T03:52:33.838Z,0.50
2024-01-06T03:55:00.475Z,0.60
2024-01-06T03:57:27.097Z,0.52
2024-01-06T03:59:53.702Z,0.55
2024-01-06T04:02:20.311Z,0.82
2024-01-06T04:04:47.733Z,0.60
2024-01-06T04:07:14.369Z,0.60
2024-01-06T04:09:43.624Z,0.55
2024-01-06T04:12:10.517Z,0.55
2024-01-06T04:14:37.216Z,0.60
2024-01-06T04:17:04.010Z,0.60
2024-01-06T04:19:30.682Z,0.47
2024-01-06T04:21:57.864Z,0.73
2024-01-06T04:24:24.527Z,0.70
2024-01-06T04:26:51.145Z,0.55
2024-01-06T04:29:17.726Z,0.57
2024-01-06T04:31:44.394Z,0.70
2024-01-06T04:34:12.686Z,0.70
2024-01-06T04:36:39.543Z,0.47
2024-01-06T04:39:06.166Z,0.70
2024-01-06T04:41:32.810Z,0.68
2024-01-06T04:43:59.399Z,0.60
2024-01-06T04:46:26.073Z,0.50
2024-01-06T04:48:52.770Z,0.60
2024-01-06T04:51:19.484Z,0.63
2024-01-06T04:53:46.861Z,0.55
2024-01-06T04:56:14.090Z,0.57
2024-01-06T04:58:40.678Z,0.60
2024-01-06T05:01:07.487Z,0.60
2024-01-06T05:03:34.283Z,0.63
2024-01-06T05:06:00.974Z,0.35
2024-01-06T05:08:27.586Z,0.70
2024-01-06T05:10:55.144Z,0.60
2024-01-06T05:13:21.779Z,0.50
2024-01-06T05:15:48.603Z,0.60
2024-01-06T05:18:15.450Z,0.40
2024-01-06T05:20:42.193Z,0.60
2024-01-06T05:23:08.850Z,0.65
2024-01-06T05:25:35.440Z,0.60
2024-01-06T05:28:02.253Z,0.65
2024-01-06T05:30:29.168Z,0.60
2024-01-06T05:32:55.902Z,0.60
2024-01-06T05:35:22.562Z,0.68
2024-01-06T05:37:49.251Z,0.60
2024-01-06T05:40:15.898Z,0.50
2024-01-06T05:42:43.642Z,0.63
2024-01-06T05:45:16.093Z,0.60
2024-01-06T05:47:42.777Z,0.80
2024-01-06T05:50:11.440Z,0.60
2024-01-06T05:52:38.276Z,0.80
2024-01-06T05:55:05.754Z,0.60
2024-01-06T05:57:32.550Z,0.60
2024-01-06T05:59:59.955Z,0.65
2024-01-06T06:02:26.728Z,0.75
2024-01-06T06:04:54.657Z,0.70
2024-01-06T06:07:21.816Z,0.60
2024-01-06T06:09:49.019Z,0.65
2024-01-06T06:12:16.235Z,0.70
2024-01-06T06:14:45.596Z,0.63
2024-01-06T06:17:12.249Z,0.55
2024-01-06T06:19:39.185Z,0.80
2024-01-06T06:22:05.968Z,0.60
2024-01-06T06:24:32.629Z,0.70
2024-01-06T06:26:59.265Z,0.57
2024-01-06T06:29:25.851Z,0.70
2024-01-06T06:31:52.589Z,0.60
2024-01-06T06:34:20.032Z,0.60
2024-01-06T06:36:47.513Z,0.63
2024-01-06T06:39:14.273Z,0.60
2024-01-06T06:41:40.944Z,0.60
2024-01-06T06:44:07.519Z,0.70
2024-01-06T06:46:34.119Z,0.75
2024-01-06T06:49:00.851Z,0.70
2024-01-06T06:51:28.785Z,0.70
2024-01-06T06:53:55.656Z,0.70
2024-01-06T06:56:22.303Z,0.80
2024-01-06T06:58:49.320Z,0.73
2024-01-06T07:01:16.952Z,0.70
2024-01-06T07:03:44.716Z,0.70
2024-01-06T07:06:14.747Z,0.60
2024-01-06T07:08:43.009Z,0.63
2024-01-06T07:11:09.809Z,0.60
2024-01-06T07:13:38.480Z,0.80
2024-01-06T07:16:14.585Z,0.75
2024-01-06T07:18:45.231Z,0.75
2024-01-06T07:21:13.643Z,0.60
2024-01-06T07:23:40.448Z,0.45
2024-01-06T07:26:08.669Z,0.60
2024-01-06T07:28:35.239Z,0.82
2024-01-06T07:31:02.223Z,0.70
2024-01-06T07:33:29.805Z,0.60
2024-01-06T07:35:56.527Z,0.60
2024-01-06T07:38:23.131Z,0.60
2024-01-06T07:40:49.706Z,0.60
2024-01-06T07:43:16.518Z,0.65
2024-01-06T07:45:43.391Z,0.60
2024-01-06T07:48:10.736Z,0.60
2024-01-06T07:50:39.798Z,0.40
2024-01-06T07:53:06.427Z,0.60
2024-01-06T07:55:33.010Z,0.60
2024-01-06T07:57:59.700Z,0.55
2024-01-06T08:00:26.793Z,0.60
2024-01-06T08:02:53.470Z,0.55
2024-01-06T08:05:20.090Z,0.60
2024-01-06T08:07:46.767Z,0.65
2024-01-06T08:10:13.561Z,0.60
2024-01-06T08:12:40.315Z,0.60
2024-01-06T08:15:08.612Z,0.60
2024-01-06T08:17:35.290Z,0.50
2024-01-06T08:20:01.994Z,0.50
2024-01-06T08:22:28.654Z,0.63
2024-01-06T08:24:55.307Z,0.70
2024-01-06T08:27:22.917Z,0.50
2024-01-06T08:29:49.620Z,0.60
2024-01-06T08:32:16.371Z,0.68
2024-01-06T08:34:43.701Z,0.60
2024-01-06T08:37:10.302Z,0.75
2024-01-06T08:39:36.953Z,0.70
2024-01-06T08:42:03.912Z,0.60
2024-01-06T08:44:30.557Z,0.55
2024-01-06T08:47:04.130Z,0.60
2024-01-06T08:49:30.866Z,0.70
2024-01-06T08:51:57.938Z,0.70
2024-01-06T08:54:24.565Z,0.90
2024-01-06T08:56:51.290Z,1.02
2024-01-06T08:59:17.943Z,0.82
2024-01-06T09:01:50.153Z,1.13
2024-01-06T09:04:17.053Z,0.90
2024-01-06T09:06:43.743Z,0.90
2024-01-06T09:09:13.118Z,1.20
2024-01-06T09:11:39.784Z,0.90
2024-01-06T09:14:06.449Z,1.05
2024-01-06T09:16:34.583Z,1.00
2024-01-06T09:19:01.344Z,1.30
2024-01-06T09:21:28.050Z,1.08
2024-01-06T09:23:54.751Z,1.05
2024-01-06T09:26:21.406Z,1.10
2024-01-06T09:28:48.956Z,1.02
2024-01-06T09:31:15.665Z,1.13
2024-01-06T09:33:42.380Z,0.90
2024-01-06T09:36:12.954Z,1.30
2024-01-06T09:38:39.694Z,1.20
2024-01-06T09:41:06.293Z,1.45
2024-01-06T09:43:34.105Z,1.23
2024-01-06T09:46:17.617Z,1.20
2024-01-06T09:48:44.543Z,1.25
2024-01-06T09:51:12.739Z,1.17
2024-01-06T09:53:48.587Z,1.20
2024-01-06T09:56:17.240Z,1.17
2024-01-06T09:58:45.763Z,1.20
2024-01-06T10:01:13.017Z,1.30
2024-01-06T10:03:42.351Z,1.25
2024-01-06T10:06:10.931Z,1.15
2024-01-06T10:08:37.759Z,1.20
2024-01-06T10:11:04.478Z,1.15
2024-01-06T10:13:31.184Z,1.35
2024-01-06T10:15:57.849Z,0.90
2024-01-06T10:18:31.362Z,1.00
2024-01-06T10:20:58.938Z,1.40
2024-01-06T10:23:28.022Z,1.10
2024-01-06T10:25:57.841Z,1.40
2024-01-06T10:28:25.791Z,1.10
2024-01-06T10:30:58.960Z,1.35
2024-01-06T10:33:27.578Z,1.10
2024-01-06T10:35:56.615Z,1.17
2024-01-06T10:38:23.463Z,1.15
2024-01-06T10:40:59.793Z,1.30
2024-01-06T10:43:28.404Z,1.20
2024-01-06T10:45:57.089Z,1.75
2024-01-06T10:48:27.862Z,1.80
2024-01-06T10:50:56.186Z,1.90
2024-01-06T10:53:28.730Z,1.90
2024-01-06T10:55:57.501Z,2.07
2024-01-06T10:58:24.290Z,2.00
2024-01-06T11:00:50.993Z,2.00
2024-01-06T11:03:19.205Z,1.85
2024-01-06T11:05:52.158Z,1.70
2024-01-06T11:08:19.262Z,2.08
2024-01-06T11:10:46.199Z,2.00
2024-01-06T11:13:21.707Z,1.90
2024-01-06T11:15:50.811Z,1.83
2024-01-06T11:18:35.703Z,1.67
2024-01-06T11:21:27.224Z,1.80
2024-01-06T11:24:17.652Z,1.73
2024-01-06T11:26:48.134Z,1.52
2024-01-06T11:29:14.777Z,1.85
2024-01-06T11:31:51.700Z,1.70
2024-01-06T11:34:20.158Z,1.50
2024-01-06T11:36:49.183Z,1.45
2024-01-06T11:39:41.937Z,1.70
2024-01-06T11:42:12.165Z,1.95
2024-01-06T11:44:46.885Z,1.75
2024-01-06T11:47:14.157Z,1.45
2024-01-06T11:49:48.640Z,1.38
2024-01-06T11:52:15.300Z,1.70
2024-01-06T11:54:43.066Z,1.95
2024-01-06T11:57:13.617Z,1.85
2024-01-06T11:59:40.841Z,1.88
2024-01-06T12:02:12.347Z,1.50
2024-01-06T12:04:38.974Z,1.65
2024-01-06T12:07:09.478Z,1.85
2024-01-06T12:09:37.061Z,1.85
2024-01-06T12:12:16.844Z,1.70
2024-01-06T12:14:43.648Z,1.70
2024-01-06T12:17:10.939Z,1.67
2024-01-06T12:19:44.019Z,1.58
2024-01-06T12:22:14.436Z,1.67
2024-01-06T12:24:41.283Z,1.60
2024-01-06T12:27:19.947Z,1.50
2024-01-06T12:29:46.586Z,1.60
2024-01-06T12:32:14.710Z,1.73
2024-01-06T12:34:41.719Z,1.50
2024-01-06T12:37:09.141Z,1.65
2024-01-06T12:39:35.922Z,1.48
2024-01-06T12:42:03.921Z,1.85
2024-01-06T12:44:38.158Z,1.52
2024-01-06T12:47:05.928Z,1.65
2024-01-06T12:49:33.216Z,1.48
2024-01-06T12:52:01.161Z,1.80
2024-01-06T12:54:27.849Z,1.67
2024-01-06T12:56:54.508Z,1.42
2024-01-06T12:59:21.132Z,1.58
2024-01-06T13:01:51.161Z,1.65
2024-01-06T13:04:18.429Z,1.60
2024-01-06T13:06:45.888Z,1.42
2024-01-06T13:09:17.592Z,1.60
2024-01-06T13:11:47.294Z,1.20
2024-01-06T13:14:14.299Z,1.75
2024-01-06T13:16:41.962Z,1.63
2024-01-06T13:19:08.668Z,1.52
2024-01-06T13:21:36.430Z,1.40
2024-01-06T13:24:05.451Z,1.65
2024-01-06T13:26:32.398Z,1.70
2024-01-06T13:28:59.012Z,1.67
2024-01-06T13:31:25.881Z,1.50
2024-01-06T13:33:58.668Z,1.50
2024-01-06T13:36:27.274Z,1.42
2024-01-06T13:38:53.972Z,1.65
2024-01-06T13:41:20.644Z,1.50
2024-01-06T13:43:47.252Z,1.50
2024-01-06T13:46:16.226Z,1.52
2024-01-06T13:48:43.115Z,1.40
2024-01-06T13:51:10.877Z,1.58
2024-01-06T13:53:39.061Z,1.42
2024-01-06T13:56:06.934Z,1.60
2024-01-06T13:58:33.527Z,1.42
2024-01-06T14:01:06.428Z,1.80
2024-01-06T14:03:34.755Z,1.35
2024-01-06T14:06:01.665Z,1.50
2024-01-06T14:08:28.485Z,1.70
2024-01-06T14:10:55.110Z,1.70
2024-01-06T14:13:22.250Z,1.30
2024-01-06T14:15:48.982Z,1.58
2024-01-06T14:18:17.397Z,1.90
2024-01-06T14:20:44.499Z,1.70
2024-01-06T14:23:14.865Z,1.67
2024-01-06T14:25:41.574Z,1.90
2024-01-06T14:28:08.256Z,1.90
2024-01-06T14:30:35.000Z,1.77
2024-01-06T14:33:01.820Z,2.22
2024-01-06T14:35:29.658Z,2.20
2024-01-06T14:37:57.735Z,2.17
2024-01-06T14:40:24.338Z,2.08
2024-01-06T14:42:50.993Z,2.00
2024-01-06T14:45:19.453Z,1.92
2024-01-06T14:47:48.306Z,2.17
2024-01-06T14:50:16.432Z,2.00
2024-01-06T14:52:43.033Z,2.40
2024-01-06T14:55:11.245Z,1.95
2024-01-06T14:57:44.073Z,2.42
2024-01-06T15:00:11.961Z,2.17
2024-01-06T15:02:39.467Z,2.10
2024-01-06T15:05:06.862Z,1.98
2024-01-06T15:07:33.674Z,1.88
2024-01-06T15:10:04.237Z,1.95
2024-01-06T15:12:32.461Z,2.17
2024-01-06T15:15:01.720Z,2.08
2024-01-06T15:17:37.597Z,2.17
2024-01-06T15:20:13.637Z,2.30
2024-01-06T15:22:41.495Z,1.85
2024-01-06T15:25:11.726Z,2.25
2024-01-06T15:27:38.537Z,2.33
2024-01-06T15:30:09.070Z,2.15
2024-01-06T15:32:46.020Z,2.65
2024-01-06T15:35:12.727Z,2.42
2024-01-06T15:37:42.300Z,2.28
2024-01-06T15:40:09.412Z,2.22
2024-01-06T15:42:36.930Z,2.05
2024-01-06T15:45:03.716Z,2.30
2024-01-06T15:47:30.689Z,2.00
2024-01-06T15:49:57.449Z,2.20
2024-01-06T15:52:24.181Z,2.03
2024-01-06T15:54:50.960Z,1.90
2024-01-06T15:57:17.810Z,2.30
2024-01-06T15:59:46.636Z,2.03
2024-01-06T16:02:15.975Z,1.98
2024-01-06T16:04:42.671Z,2.05
2024-01-06T16:07:10.624Z,2.03
2024-01-06T16:09:47.831Z,2.00
2024-01-06T16:12:14.505Z,2.35
2024-01-06T16:14:45.342Z,2.33
2024-01-06T16:17:11.925Z,2.35
2024-01-06T16:19:39.264Z,2.05
2024-01-06T16:22:14.588Z,2.00
2024-01-06T16:24:44.481Z,2.03
2024-01-06T16:27:11.534Z,2.25
2024-01-06T16:29:39.291Z,1.98
2024-01-06T16:32:10.073Z,2.42
2024-01-06T16:34:37.206Z,1.92
2024-01-06T16:37:04.993Z,1.80
2024-01-06T16:39:32.868Z,2.28
2024-01-06T16:42:00.393Z,2.50
2024-01-06T16:44:27.657Z,2.40
2024-01-06T16:46:58.268Z,2.25
2024-01-06T16:49:25.448Z,2.03
2024-01-06T16:51:52.284Z,2.10
2024-01-06T16:54:19.056Z,1.98
2024-01-06T16:56:47.328Z,1.73
2024-01-06T16:59:15.615Z,2.00
2024-01-06T17:01:42.260Z,2.22
2024-01-06T17:04:08.993Z,1.90
2024-01-06T17:06:35.734Z,2.13
2024-01-06T17:09:02.337Z,2.20
2024-01-06T17:11:28.944Z,2.10
2024-01-06T17:13:55.544Z,1.88
2024-01-06T17:16:22.131Z,2.30
2024-01-06T17:18:48.993Z,1.80
2024-01-06T17:21:17.164Z,2.10
2024-01-06T17:23:44.901Z,2.00
2024-01-06T17:26:12.208Z,2.10
2024-01-06T17:28:39.943Z,1.73
2024-01-06T17:31:06.662Z,1.90
2024-01-06T17:33:33.515Z,2.03
2024-01-06T17:36:00.257Z,1.95
2024-01-06T17:38:26.956Z,1.95
2024-01-06T17:40:53.588Z,2.50
2024-01-06T17:43:20.194Z,2.17
2024-01-06T17:45:46.950Z,2.03
2024-01-06T17:48:13.628Z,1.85
2024-01-06T17:50:40.264Z,1.77
2024-01-06T17:53:07.914Z,1.92
2024-01-06T17:55:34.637Z,2.00
2024-01-06T17:58:01.341Z,2.10
2024-01-06T18:00:27.995Z,2.15
2024-01-06T18:02:55.396Z,1.80
2024-01-06T18:05:25.372Z,1.75
2024-01-06T18:07:52.111Z,1.95
2024-01-06T18:10:18.958Z,1.55
2024-01-06T18:12:48.194Z,2.10
2024-01-06T18:15:14.874Z,1.83
2024-01-06T18:17:41.796Z,2.00
2024-01-06T18:20:09.578Z,2.00
2024-01-06T18:22:36.284Z,2.20
2024-01-06T18:25:02.945Z,1.80
2024-01-06T18:27:31.127Z,2.03
2024-01-06T18:29:57.941Z,1.65
2024-01-06T18:32:24.701Z,2.30
2024-01-06T18:34:51.373Z,1.60
2024-01-06T18:37:18.128Z,2.00
2024-01-06T18:39:45.115Z,1.98
2024-01-06T18:42:14.786Z,1.67
2024-01-06T18:44:41.832Z,2.25
2024-01-06T18:47:12.898Z,1.80
2024-01-06T18:49:39.726Z,1.77
2024-01-06T18:52:06.582Z,1.60
2024-01-06T18:54:41.870Z,1.40
2024-01-06T18:57:13.021Z,1.73
2024-01-06T18:59:39.871Z,1.70
2024-01-06T19:02:08.080Z,1.70
2024-01-06T19:04:35.096Z,1.75
2024-01-06T19:07:01.802Z,1.83
2024-01-06T19:09:29.727Z,1.70
2024-01-06T19:11:56.779Z,1.90
2024-01-06T19:14:23.531Z,1.70
2024-01-06T19:16:51.310Z,1.65
2024-01-06T19:19:21.853Z,1.77
2024-01-06T19:21:50.459Z,1.58
2024-01-06T19:24:27.263Z,1.65
2024-01-06T19:26:59.308Z,2.08
2024-01-06T19:29:27.312Z,1.70
2024-01-06T19:31:54.335Z,1.90
2024-01-06T19:34:21.175Z,1.90
2024-01-06T19:36:48.977Z,1.65
2024-01-06T19:39:15.715Z,2.08
2024-01-06T19:41:42.325Z,1.67
2024-01-06T19:44:10.510Z,1.92
2024-01-06T19:46:37.263Z,1.88
2024-01-06T19:49:04.196Z,2.00
2024-01-06T19:51:31.205Z,1.67
2024-01-06T19:53:57.811Z,2.00
2024-01-06T19:56:24.404Z,1.77
2024-01-06T19:58:51.024Z,1.63
2024-01-06T20:01:17.782Z,1.60
2024-01-06T20:03:44.515Z,1.52
2024-01-06T20:06:11.478Z,1.80
2024-01-06T20:08:38.368Z,1.30
2024-01-06T20:11:05.071Z,1.77
2024-01-06T20:13:32.187Z,1.80
2024-01-06T20:15:59.049Z,1.77
2024-01-06T20:18:30.642Z,1.80
2024-01-06T20:20:57.520Z,1.90
2024-01-06T20:23:24.140Z,1.52
2024-01-06T20:25:50.802Z,1.77
2024-01-06T20:28:17.402Z,1.60
2024-01-06T20:30:44.207Z,1.60
2024-01-06T20:33:11.172Z,1.85
2024-01-06T20:35:38.108Z,1.83
2024-01-06T20:38:04.900Z,1.73
2024-01-06T20:40:32.374Z,2.05
2024-01-06T20:42:59.092Z,1.63
2024-01-06T20:45:25.796Z,2.08
2024-01-06T20:47:52.671Z,1.77
2024-01-06T20:50:21.356Z,1.63
2024-01-06T20:52:48.662Z,1.58
2024-01-06T20:55:16.071Z,1.83
2024-01-06T20:57:44.550Z,1.63
2024-01-06T21:00:11.422Z,2.00
2024-01-06T21:02:40.953Z,1.98
2024-01-06T21:05:08.093Z,1.90
2024-01-06T21:07:34.986Z,1.80
2024-01-06T21:10:05.073Z,1.52
2024-01-06T21:12:33.207Z,1.67
2024-01-06T21:15:05.753Z,1.88
2024-01-06T21:17:32.585Z,1.80
2024-01-06T21:19:59.349Z,1.70
2024-01-06T21:22:25.960Z,1.75
2024-01-06T21:24:52.814Z,1.85
2024-01-06T21:27:19.588Z,1.80
2024-01-06T21:29:46.254Z,2.05
2024-01-06T21:32:12.917Z,1.98
2024-01-06T21:34:39.664Z,1.70
2024-01-06T21:37:06.426Z,1.38
2024-01-06T21:39:33.045Z,1.70
2024-01-06T21:42:00.884Z,1.52
2024-01-06T21:44:29.053Z,1.88
2024-01-06T21:46:55.681Z,1.70
2024-01-06T21:49:22.427Z,1.75
2024-01-06T21:51:50.522Z,1.83
2024-01-06T21:54:17.669Z,1.60
2024-01-06T21:56:45.945Z,2.15
2024-01-06T21:59:13.171Z,1.80
2024-01-06T22:01:43.158Z,1.80
2024-01-06T22:04:13.537Z,1.90
2024-01-06T22:06:40.305Z,1.65
2024-01-06T22:09:11.299Z,1.88
2024-01-06T22:11:40.004Z,1.90
2024-01-06T22:14:08.118Z,1.80
2024-01-06T22:16:34.715Z,1.65
2024-01-06T22:19:01.406Z,1.90
2024-01-06T22:21:30.563Z,1.52
2024-01-06T22:23:59.563Z,1.65
2024-01-06T22:26:26.212Z,1.65
2024-01-06T22:28:52.795Z,1.88
2024-01-06T22:31:19.542Z,1.80
2024-01-06T22:33:49.093Z,1.73
2024-01-06T22:36:15.924Z,1.50
2024-01-06T22:38:52.341Z,1.75
2024-01-06T22:41:22.039Z,1.95
2024-01-06T22:43:48.734Z,1.65
2024-01-06T22:46:15.365Z,1.95
2024-01-06T22:48:42.930Z,1.75
2024-01-06T22:51:10.283Z,1.40
2024-01-06T22:53:37.055Z,1.65
2024-01-06T22:56:04.376Z,1.90
2024-01-06T22:58:31.516Z,1.92
2024-01-06T23:00:59.276Z,1.55
2024-01-06T23:03:27.460Z,1.85
2024-01-06T23:05:54.117Z,2.17
2024-01-06T23:08:21.571Z,1.92
2024-01-06T23:10:48.478Z,1.90
2024-01-06T23:13:15.198Z,1.92
2024-01-06T23:15:44.768Z,1.88
2024-01-06T23:18:11.721Z,1.67
2024-01-06T23:20:41.275Z,2.05
2024-01-06T23:23:07.885Z,1.75
2024-01-06T23:25:34.492Z,2.00
2024-01-06T23:28:01.128Z,1.80
2024-01-06T23:30:27.845Z,1.80
2024-01-06T23:32:54.605Z,2.00
2024-01-06T23:35:21.355Z,1.70
2024-01-06T23:37:52.085Z,1.95
2024-01-06T23:40:18.946Z,1.70
2024-01-06T23:42:45.672Z,1.52
2024-01-06T23:45:12.340Z,1.90
2024-01-06T23:47:39.018Z,2.05
2024-01-06T23:50:07.184Z,1.92
2024-01-06T23:52:33.769Z,1.90
2024-01-06T23:55:00.484Z,1.70
2024-01-06T23:57:27.235Z,1.85
2024-01-06T23:59:53.854Z,2.17
